ダーウィン の空港の天気 - METARとTAF

ダーウィン国際空港 ( YPDN / DRW ) - オーストラリア ノーザンテリトリーダーウィン
飛行場実況気象(Metar)
観測時間09/25 11:00 ACST (09/25 01:30 UTC)
風向・風速東 7m/s
視程10km以上
天気現象
少しの雲 雲底高度 1340m
気温31℃
湿度40%
気圧1013hPa
METARYPDN 250130Z 10013KT 9999 FEW044 31/16 Q1013 NOSIG
過去の天気等 Google飛行場航空写真 Wunderground天気予報

過去48時間のMETAR

飛行場予報(TAF)
発表時間: 9/25 08:49 ACST (9/24 23:19 UTC)
予報対象時間: 25日9時 ACST ~ 26日15時 ACST
風向・風速東北東 3m/s
視程10km以上
全天の4割程度の雲 雲底高度 610m
25日11時 ACST から
風向・風速北北西 6m/s
視程10km以上
全天の4割程度の雲 雲底高度 1070m
25日19時 ACST から
風向・風速西北西 3m/s
視程10km以上
少しの雲 雲底高度 460m
26日3時 ACST から
風向・風速東北東 3m/s
視程10km以上
少しの雲 雲底高度 460m
26日9時 ACST から
風向・風速東北東 6m/s
視程10km以上
なし
TAF YPDN 242319Z 2500/2606 06006KT 9999 SCT020
FM250200 34012KT 9999 SCT035
FM251000 30006KT 9999 FEW015
FM251800 07005KT 9999 FEW015
FM260000 06012KT CAVOK